sensor_id;sensor_type;location;lat;lon;timestamp;P1;durP1;ratioP1;P2;durP2;ratioP2
21804;SDS011;11064;47.102;15.452;2022-08-06T05:03:32;5.13;;;3.30;;
21804;SDS011;11064;47.102;15.452;2022-08-06T05:06:05;3.78;;;3.00;;
21804;SDS011;11064;47.102;15.452;2022-08-06T05:08:38;4.20;;;2.90;;
21804;SDS011;11064;47.102;15.452;2022-08-06T05:11:19;4.90;;;3.05;;
21804;SDS011;11064;47.102;15.452;2022-08-06T05:14:04;3.42;;;3.13;;
21804;SDS011;11064;47.102;15.452;2022-08-06T05:16:34;4.75;;;3.17;;
21804;SDS011;11064;47.102;15.452;2022-08-06T05:19:05;3.20;;;2.90;;
21804;SDS011;11064;47.102;15.452;2022-08-06T05:21:37;3.85;;;2.90;;
21804;SDS011;11064;47.102;15.452;2022-08-06T05:24:04;3.03;;;2.72;;
21804;SDS011;11064;47.102;15.452;2022-08-06T05:26:30;3.38;;;2.78;;
21804;SDS011;11064;47.102;15.452;2022-08-06T05:28:57;2.63;;;2.40;;
21804;SDS011;11064;47.102;15.452;2022-08-06T05:31:30;4.22;;;2.80;;
21804;SDS011;11064;47.102;15.452;2022-08-06T05:33:57;3.88;;;2.60;;
21804;SDS011;11064;47.102;15.452;2022-08-06T05:36:23;2.70;;;2.50;;
21804;SDS011;11064;47.102;15.452;2022-08-06T05:38:48;4.53;;;2.92;;
21804;SDS011;11064;47.102;15.452;2022-08-06T05:41:14;3.17;;;2.90;;
21804;SDS011;11064;47.102;15.452;2022-08-06T05:43:40;2.97;;;2.67;;
21804;SDS011;11064;47.102;15.452;2022-08-06T05:46:09;2.70;;;2.50;;
21804;SDS011;11064;47.102;15.452;2022-08-06T05:48:38;3.67;;;2.50;;
21804;SDS011;11064;47.102;15.452;2022-08-06T05:51:12;2.25;;;2.05;;
21804;SDS011;11064;47.102;15.452;2022-08-06T05:53:57;2.50;;;2.30;;
21804;SDS011;11064;47.102;15.452;2022-08-06T05:56:29;2.45;;;2.25;;
21804;SDS011;11064;47.102;15.452;2022-08-06T05:59:01;2.83;;;2.40;;
21804;SDS011;11064;47.102;15.452;2022-08-06T06:01:30;2.53;;;2.33;;
21804;SDS011;11064;47.102;15.452;2022-08-06T06:03:58;3.63;;;2.20;;
21804;SDS011;11064;47.102;15.452;2022-08-06T06:06:24;3.47;;;2.30;;
21804;SDS011;11064;47.102;15.452;2022-08-06T06:08:51;2.80;;;2.30;;
21804;SDS011;11064;47.102;15.452;2022-08-06T06:11:18;5.10;;;2.30;;
21804;SDS011;11064;47.102;15.452;2022-08-06T06:13:44;3.15;;;2.42;;
21804;SDS011;11064;47.102;15.452;2022-08-06T06:16:14;2.30;;;2.10;;
21804;SDS011;11064;47.102;15.452;2022-08-06T06:22:34;2.35;;;2.15;;
21804;SDS011;11064;47.102;15.452;2022-08-06T06:25:19;2.25;;;2.00;;
21804;SDS011;11064;47.102;15.452;2022-08-06T06:27:53;3.15;;;2.10;;
21804;SDS011;11064;47.102;15.452;2022-08-06T06:30:38;2.05;;;1.80;;
21804;SDS011;11064;47.102;15.452;2022-08-06T06:35:56;3.80;;;2.20;;
21804;SDS011;11064;47.102;15.452;2022-08-06T06:41:40;2.22;;;1.95;;
21804;SDS011;11064;47.102;15.452;2022-08-06T06:50:18;2.05;;;1.77;;
21804;SDS011;11064;47.102;15.452;2022-08-06T06:52:43;2.03;;;1.67;;
21804;SDS011;11064;47.102;15.452;2022-08-06T06:57:42;3.15;;;1.77;;
21804;SDS011;11064;47.102;15.452;2022-08-06T07:00:11;3.63;;;1.60;;
21804;SDS011;11064;47.102;15.452;2022-08-06T07:02:38;4.20;;;1.50;;
21804;SDS011;11064;47.102;15.452;2022-08-06T07:05:08;2.55;;;1.58;;
21804;SDS011;11064;47.102;15.452;2022-08-06T07:07:37;2.38;;;1.80;;
21804;SDS011;11064;47.102;15.452;2022-08-06T07:10:04;1.90;;;1.40;;
21804;SDS011;11064;47.102;15.452;2022-08-06T07:12:33;2.75;;;1.52;;
21804;SDS011;11064;47.102;15.452;2022-08-06T07:15:01;1.60;;;1.50;;
21804;SDS011;11064;47.102;15.452;2022-08-06T07:17:30;3.13;;;1.60;;
21804;SDS011;11064;47.102;15.452;2022-08-06T07:19:58;1.95;;;1.40;;
21804;SDS011;11064;47.102;15.452;2022-08-06T07:22:27;2.63;;;1.30;;
21804;SDS011;11064;47.102;15.452;2022-08-06T07:24:56;2.13;;;1.40;;
21804;SDS011;11064;47.102;15.452;2022-08-06T07:27:25;1.63;;;1.52;;
21804;SDS011;11064;47.102;15.452;2022-08-06T07:30:02;1.70;;;1.60;;
21804;SDS011;11064;47.102;15.452;2022-08-06T07:32:29;3.38;;;1.40;;
21804;SDS011;11064;47.102;15.452;2022-08-06T07:34:56;1.60;;;1.50;;
21804;SDS011;11064;47.102;15.452;2022-08-06T07:37:22;1.60;;;1.50;;
21804;SDS011;11064;47.102;15.452;2022-08-06T07:39:50;1.92;;;1.45;;
21804;SDS011;11064;47.102;15.452;2022-08-06T07:42:18;1.70;;;1.50;;
21804;SDS011;11064;47.102;15.452;2022-08-06T07:47:18;3.78;;;1.50;;
21804;SDS011;11064;47.102;15.452;2022-08-06T07:49:49;2.05;;;1.63;;
21804;SDS011;11064;47.102;15.452;2022-08-06T07:52:17;1.95;;;1.65;;
21804;SDS011;11064;47.102;15.452;2022-08-06T07:54:44;2.00;;;1.40;;
21804;SDS011;11064;47.102;15.452;2022-08-06T07:57:11;1.85;;;1.73;;
21804;SDS011;11064;47.102;15.452;2022-08-06T07:59:39;1.80;;;1.60;;
21804;SDS011;11064;47.102;15.452;2022-08-06T08:02:05;2.25;;;1.60;;
21804;SDS011;11064;47.102;15.452;2022-08-06T08:04:32;1.92;;;1.50;;
21804;SDS011;11064;47.102;15.452;2022-08-06T08:07:17;1.73;;;1.63;;
21804;SDS011;11064;47.102;15.452;2022-08-06T08:09:44;1.60;;;1.50;;
21804;SDS011;11064;47.102;15.452;2022-08-06T08:12:14;1.65;;;1.38;;
21804;SDS011;11064;47.102;15.452;2022-08-06T08:14:45;1.70;;;1.60;;
21804;SDS011;11064;47.102;15.452;2022-08-06T08:17:13;1.73;;;1.52;;
21804;SDS011;11064;47.102;15.452;2022-08-06T08:19:40;2.92;;;1.73;;
21804;SDS011;11064;47.102;15.452;2022-08-06T08:22:12;1.65;;;1.50;;
21804;SDS011;11064;47.102;15.452;2022-08-06T08:24:41;1.60;;;1.50;;
21804;SDS011;11064;47.102;15.452;2022-08-06T08:27:09;1.70;;;1.60;;
21804;SDS011;11064;47.102;15.452;2022-08-06T08:29:37;2.08;;;1.60;;
21804;SDS011;11064;47.102;15.452;2022-08-06T08:32:04;1.70;;;1.60;;
21804;SDS011;11064;47.102;15.452;2022-08-06T08:34:31;1.70;;;1.60;;
21804;SDS011;11064;47.102;15.452;2022-08-06T08:36:57;1.77;;;1.67;;
21804;SDS011;11064;47.102;15.452;2022-08-06T08:39:23;1.83;;;1.60;;
21804;SDS011;11064;47.102;15.452;2022-08-06T08:41:50;1.98;;;1.77;;
21804;SDS011;11064;47.102;15.452;2022-08-06T08:44:23;1.60;;;1.50;;
21804;SDS011;11064;47.102;15.452;2022-08-06T08:46:56;1.85;;;1.75;;
21804;SDS011;11064;47.102;15.452;2022-08-06T08:52:09;2.70;;;1.80;;
21804;SDS011;11064;47.102;15.452;2022-08-06T08:54:41;2.10;;;1.75;;
21804;SDS011;11064;47.102;15.452;2022-08-06T08:57:09;3.15;;;1.83;;
21804;SDS011;11064;47.102;15.452;2022-08-06T08:59:36;4.03;;;1.70;;
21804;SDS011;11064;47.102;15.452;2022-08-06T09:02:04;2.85;;;2.00;;
21804;SDS011;11064;47.102;15.452;2022-08-06T09:04:31;4.78;;;2.47;;
21804;SDS011;11064;47.102;15.452;2022-08-06T09:06:57;3.08;;;2.03;;
21804;SDS011;11064;47.102;15.452;2022-08-06T09:09:23;3.72;;;1.92;;
21804;SDS011;11064;47.102;15.452;2022-08-06T09:11:51;2.53;;;1.92;;
21804;SDS011;11064;47.102;15.452;2022-08-06T09:14:17;3.22;;;2.00;;
21804;SDS011;11064;47.102;15.452;2022-08-06T09:16:46;1.90;;;1.80;;
21804;SDS011;11064;47.102;15.452;2022-08-06T09:19:14;3.00;;;1.90;;
21804;SDS011;11064;47.102;15.452;2022-08-06T09:21:40;3.00;;;2.13;;
21804;SDS011;11064;47.102;15.452;2022-08-06T09:24:06;2.55;;;2.15;;
21804;SDS011;11064;47.102;15.452;2022-08-06T09:26:32;2.55;;;2.13;;
21804;SDS011;11064;47.102;15.452;2022-08-06T09:28:58;2.22;;;2.03;;
21804;SDS011;11064;47.102;15.452;2022-08-06T09:31:24;2.22;;;2.03;;
21804;SDS011;11064;47.102;15.452;2022-08-06T09:36:26;2.97;;;2.15;;
21804;SDS011;11064;47.102;15.452;2022-08-06T09:38:53;2.80;;;2.10;;
21804;SDS011;11064;47.102;15.452;2022-08-06T09:41:23;3.63;;;1.90;;
21804;SDS011;11064;47.102;15.452;2022-08-06T09:43:51;2.00;;;1.80;;
21804;SDS011;11064;47.102;15.452;2022-08-06T09:46:24;3.45;;;2.15;;
21804;SDS011;11064;47.102;15.452;2022-08-06T09:49:03;3.10;;;2.15;;
21804;SDS011;11064;47.102;15.452;2022-08-06T09:51:29;3.95;;;2.03;;
21804;SDS011;11064;47.102;15.452;2022-08-06T09:53:56;2.35;;;2.15;;
21804;SDS011;11064;47.102;15.452;2022-08-06T09:56:27;2.22;;;1.90;;
21804;SDS011;11064;47.102;15.452;2022-08-06T09:58:58;2.15;;;1.95;;
21804;SDS011;11064;47.102;15.452;2022-08-06T10:01:25;2.45;;;2.17;;
21804;SDS011;11064;47.102;15.452;2022-08-06T10:03:53;3.35;;;2.20;;
21804;SDS011;11064;47.102;15.452;2022-08-06T10:06:21;2.58;;;2.38;;
21804;SDS011;11064;47.102;15.452;2022-08-06T10:08:47;3.90;;;2.03;;
21804;SDS011;11064;47.102;15.452;2022-08-06T10:11:15;3.85;;;2.42;;
21804;SDS011;11064;47.102;15.452;2022-08-06T10:13:57;3.20;;;2.20;;
21804;SDS011;11064;47.102;15.452;2022-08-06T10:16:23;4.60;;;2.75;;
21804;SDS011;11064;47.102;15.452;2022-08-06T10:18:52;6.00;;;3.28;;
21804;SDS011;11064;47.102;15.452;2022-08-06T10:21:19;5.18;;;3.30;;
21804;SDS011;11064;47.102;15.452;2022-08-06T10:23:50;4.10;;;3.40;;
21804;SDS011;11064;47.102;15.452;2022-08-06T10:26:25;5.00;;;3.10;;
21804;SDS011;11064;47.102;15.452;2022-08-06T10:28:52;4.50;;;3.20;;
21804;SDS011;11064;47.102;15.452;2022-08-06T10:31:19;6.13;;;3.30;;
21804;SDS011;11064;47.102;15.452;2022-08-06T10:33:57;4.30;;;3.10;;
21804;SDS011;11064;47.102;15.452;2022-08-06T10:36:36;3.90;;;3.20;;
21804;SDS011;11064;47.102;15.452;2022-08-06T10:39:05;4.75;;;3.17;;
21804;SDS011;11064;47.102;15.452;2022-08-06T10:41:32;4.75;;;3.20;;
21804;SDS011;11064;47.102;15.452;2022-08-06T10:44:01;6.60;;;3.20;;
21804;SDS011;11064;47.102;15.452;2022-08-06T10:46:27;6.47;;;3.30;;
21804;SDS011;11064;47.102;15.452;2022-08-06T10:48:54;3.92;;;3.30;;
21804;SDS011;11064;47.102;15.452;2022-08-06T10:51:20;3.97;;;3.33;;
21804;SDS011;11064;47.102;15.452;2022-08-06T10:53:47;4.22;;;3.10;;
21804;SDS011;11064;47.102;15.452;2022-08-06T10:56:14;10.18;;;3.95;;
21804;SDS011;11064;47.102;15.452;2022-08-06T10:58:41;4.57;;;3.20;;
21804;SDS011;11064;47.102;15.452;2022-08-06T11:01:09;3.33;;;3.03;;
21804;SDS011;11064;47.102;15.452;2022-08-06T11:15:14;3.83;;;2.80;;
21804;SDS011;11064;47.102;15.452;2022-08-06T11:17:53;5.18;;;3.35;;
21804;SDS011;11064;47.102;15.452;2022-08-06T11:23:02;3.67;;;2.80;;
21804;SDS011;11064;47.102;15.452;2022-08-06T11:28:08;5.05;;;2.90;;
21804;SDS011;11064;47.102;15.452;2022-08-06T11:30:46;3.92;;;2.85;;
21804;SDS011;11064;47.102;15.452;2022-08-06T11:33:15;3.22;;;2.85;;
21804;SDS011;11064;47.102;15.452;2022-08-06T11:35:45;5.90;;;3.20;;
21804;SDS011;11064;47.102;15.452;2022-08-06T11:38:14;3.53;;;3.10;;
21804;SDS011;11064;47.102;15.452;2022-08-06T11:54:30;3.42;;;2.88;;
21804;SDS011;11064;47.102;15.452;2022-08-06T11:59:27;4.57;;;2.80;;
21804;SDS011;11064;47.102;15.452;2022-08-06T12:01:55;3.63;;;2.95;;
21804;SDS011;11064;47.102;15.452;2022-08-06T12:10:00;4.38;;;2.65;;
21804;SDS011;11064;47.102;15.452;2022-08-06T12:22:55;4.53;;;2.95;;
21804;SDS011;11064;47.102;15.452;2022-08-06T12:25:28;4.47;;;2.90;;
21804;SDS011;11064;47.102;15.452;2022-08-06T12:27:56;3.97;;;3.15;;
21804;SDS011;11064;47.102;15.452;2022-08-06T12:30:22;3.17;;;2.70;;
21804;SDS011;11064;47.102;15.452;2022-08-06T12:32:48;4.03;;;2.92;;
21804;SDS011;11064;47.102;15.452;2022-08-06T12:35:14;4.88;;;3.20;;
21804;SDS011;11064;47.102;15.452;2022-08-06T12:40:09;3.92;;;2.90;;
21804;SDS011;11064;47.102;15.452;2022-08-06T12:43:14;4.13;;;3.10;;
21804;SDS011;11064;47.102;15.452;2022-08-06T12:45:40;4.10;;;2.88;;
21804;SDS011;11064;47.102;15.452;2022-08-06T12:48:10;3.78;;;2.75;;
21804;SDS011;11064;47.102;15.452;2022-08-06T12:50:41;3.75;;;2.88;;
21804;SDS011;11064;47.102;15.452;2022-08-06T12:53:12;4.38;;;2.80;;
21804;SDS011;11064;47.102;15.452;2022-08-06T12:55:46;3.45;;;2.58;;
21804;SDS011;11064;47.102;15.452;2022-08-06T12:58:39;3.10;;;2.35;;
21804;SDS011;11064;47.102;15.452;2022-08-06T13:01:04;2.25;;;2.05;;
21804;SDS011;11064;47.102;15.452;2022-08-06T13:03:32;2.63;;;2.42;;
21804;SDS011;11064;47.102;15.452;2022-08-06T13:06:02;2.95;;;1.80;;
21804;SDS011;11064;47.102;15.452;2022-08-06T13:08:31;1.92;;;1.73;;
21804;SDS011;11064;47.102;15.452;2022-08-06T13:10:58;2.15;;;1.92;;
21804;SDS011;11064;47.102;15.452;2022-08-06T13:16:13;2.10;;;1.90;;
21804;SDS011;11064;47.102;15.452;2022-08-06T13:18:42;2.90;;;2.05;;
21804;SDS011;11064;47.102;15.452;2022-08-06T13:21:28;1.92;;;1.67;;
21804;SDS011;11064;47.102;15.452;2022-08-06T13:23:54;2.35;;;2.15;;
21804;SDS011;11064;47.102;15.452;2022-08-06T13:26:24;3.30;;;1.92;;
21804;SDS011;11064;47.102;15.452;2022-08-06T13:29:11;2.20;;;2.00;;
21804;SDS011;11064;47.102;15.452;2022-08-06T13:31:43;3.42;;;2.03;;
21804;SDS011;11064;47.102;15.452;2022-08-06T13:34:15;2.10;;;1.90;;
21804;SDS011;11064;47.102;15.452;2022-08-06T13:36:43;2.72;;;1.80;;
21804;SDS011;11064;47.102;15.452;2022-08-06T13:39:27;3.33;;;2.00;;
21804;SDS011;11064;47.102;15.452;2022-08-06T13:44:42;3.15;;;1.80;;
21804;SDS011;11064;47.102;15.452;2022-08-06T13:47:10;1.63;;;1.52;;
21804;SDS011;11064;47.102;15.452;2022-08-06T13:49:38;3.65;;;1.80;;
21804;SDS011;11064;47.102;15.452;2022-08-06T13:52:05;3.28;;;1.70;;
21804;SDS011;11064;47.102;15.452;2022-08-06T13:54:31;1.70;;;1.60;;
21804;SDS011;11064;47.102;15.452;2022-08-06T13:56:57;1.92;;;1.60;;
21804;SDS011;11064;47.102;15.452;2022-08-06T13:59:24;1.60;;;1.50;;
21804;SDS011;11064;47.102;15.452;2022-08-06T14:01:53;2.03;;;1.48;;
21804;SDS011;11064;47.102;15.452;2022-08-06T14:04:22;1.75;;;1.50;;
21804;SDS011;11064;47.102;15.452;2022-08-06T14:06:51;1.88;;;1.60;;
21804;SDS011;11064;47.102;15.452;2022-08-06T14:09:19;2.63;;;1.58;;
21804;SDS011;11064;47.102;15.452;2022-08-06T14:11:57;2.20;;;1.30;;
21804;SDS011;11064;47.102;15.452;2022-08-06T14:14:24;1.50;;;1.40;;
21804;SDS011;11064;47.102;15.452;2022-08-06T14:16:52;1.40;;;1.30;;
21804;SDS011;11064;47.102;15.452;2022-08-06T14:19:18;1.65;;;1.27;;
21804;SDS011;11064;47.102;15.452;2022-08-06T14:21:44;2.03;;;1.50;;
21804;SDS011;11064;47.102;15.452;2022-08-06T14:24:10;1.30;;;1.20;;
21804;SDS011;11064;47.102;15.452;2022-08-06T14:26:35;1.55;;;1.27;;
21804;SDS011;11064;47.102;15.452;2022-08-06T14:29:02;1.90;;;1.35;;
21804;SDS011;11064;47.102;15.452;2022-08-06T14:31:30;1.77;;;1.40;;
21804;SDS011;11064;47.102;15.452;2022-08-06T14:33:57;1.50;;;1.20;;
21804;SDS011;11064;47.102;15.452;2022-08-06T14:36:23;1.30;;;1.20;;
21804;SDS011;11064;47.102;15.452;2022-08-06T14:38:49;1.33;;;1.23;;
21804;SDS011;11064;47.102;15.452;2022-08-06T14:41:15;1.83;;;1.10;;
21804;SDS011;11064;47.102;15.452;2022-08-06T14:43:59;1.38;;;1.23;;
21804;SDS011;11064;47.102;15.452;2022-08-06T14:46:43;1.20;;;1.10;;
21804;SDS011;11064;47.102;15.452;2022-08-06T14:49:08;1.20;;;1.10;;
21804;SDS011;11064;47.102;15.452;2022-08-06T14:51:34;1.17;;;1.10;;
21804;SDS011;11064;47.102;15.452;2022-08-06T14:54:00;1.20;;;1.10;;
21804;SDS011;11064;47.102;15.452;2022-08-06T14:56:26;1.55;;;1.10;;
21804;SDS011;11064;47.102;15.452;2022-08-06T14:58:52;1.30;;;1.20;;
21804;SDS011;11064;47.102;15.452;2022-08-06T15:01:17;1.38;;;1.27;;
21804;SDS011;11064;47.102;15.452;2022-08-06T15:03:43;1.15;;;1.05;;
21804;SDS011;11064;47.102;15.452;2022-08-06T15:06:09;1.30;;;1.20;;
21804;SDS011;11064;47.102;15.452;2022-08-06T15:08:35;2.72;;;1.20;;
21804;SDS011;11064;47.102;15.452;2022-08-06T15:11:02;1.83;;;1.10;;
21804;SDS011;11064;47.102;15.452;2022-08-06T15:13:28;1.27;;;1.17;;
21804;SDS011;11064;47.102;15.452;2022-08-06T15:15:54;1.60;;;1.05;;
21804;SDS011;11064;47.102;15.452;2022-08-06T15:18:19;1.92;;;1.20;;
21804;SDS011;11064;47.102;15.452;2022-08-06T15:20:46;1.30;;;1.20;;
21804;SDS011;11064;47.102;15.452;2022-08-06T15:23:12;1.20;;;1.10;;
21804;SDS011;11064;47.102;15.452;2022-08-06T15:25:37;1.45;;;1.10;;
21804;SDS011;11064;47.102;15.452;2022-08-06T15:28:04;1.20;;;1.10;;
21804;SDS011;11064;47.102;15.452;2022-08-06T15:30:30;1.08;;;1.00;;
21804;SDS011;11064;47.102;15.452;2022-08-06T15:32:56;1.10;;;1.00;;
21804;SDS011;11064;47.102;15.452;2022-08-06T15:35:24;1.58;;;1.20;;
21804;SDS011;11064;47.102;15.452;2022-08-06T15:37:50;1.13;;;1.02;;
21804;SDS011;11064;47.102;15.452;2022-08-06T15:40:17;1.27;;;1.17;;
21804;SDS011;11064;47.102;15.452;2022-08-06T15:42:43;1.92;;;1.15;;
21804;SDS011;11064;47.102;15.452;2022-08-06T15:45:10;1.20;;;1.10;;
21804;SDS011;11064;47.102;15.452;2022-08-06T15:47:38;1.25;;;1.15;;
21804;SDS011;11064;47.102;15.452;2022-08-06T15:50:05;1.08;;;1.02;;
21804;SDS011;11064;47.102;15.452;2022-08-06T15:52:31;1.58;;;1.08;;
21804;SDS011;11064;47.102;15.452;2022-08-06T15:54:57;1.77;;;1.38;;
21804;SDS011;11064;47.102;15.452;2022-08-06T15:57:24;1.48;;;1.20;;
21804;SDS011;11064;47.102;15.452;2022-08-06T15:59:50;2.75;;;1.17;;
21804;SDS011;11064;47.102;15.452;2022-08-06T16:02:15;2.35;;;1.20;;
21804;SDS011;11064;47.102;15.452;2022-08-06T16:04:41;1.75;;;1.27;;
21804;SDS011;11064;47.102;15.452;2022-08-06T16:07:07;1.30;;;1.20;;
21804;SDS011;11064;47.102;15.452;2022-08-06T16:09:33;1.05;;;1.00;;
21804;SDS011;11064;47.102;15.452;2022-08-06T16:12:00;2.30;;;1.15;;
21804;SDS011;11064;47.102;15.452;2022-08-06T16:14:28;1.23;;;1.13;;
21804;SDS011;11064;47.102;15.452;2022-08-06T16:16:54;2.58;;;1.15;;
21804;SDS011;11064;47.102;15.452;2022-08-06T16:19:20;2.30;;;1.20;;
21804;SDS011;11064;47.102;15.452;2022-08-06T16:21:46;2.00;;;1.10;;
21804;SDS011;11064;47.102;15.452;2022-08-06T16:24:11;1.70;;;1.10;;
21804;SDS011;11064;47.102;15.452;2022-08-06T16:26:37;2.15;;;1.02;;
21804;SDS011;11064;47.102;15.452;2022-08-06T16:29:04;1.30;;;1.20;;
21804;SDS011;11064;47.102;15.452;2022-08-06T16:31:30;1.30;;;0.93;;
21804;SDS011;11064;47.102;15.452;2022-08-06T16:33:56;1.70;;;1.20;;
21804;SDS011;11064;47.102;15.452;2022-08-06T16:36:22;1.65;;;1.10;;
21804;SDS011;11064;47.102;15.452;2022-08-06T16:38:48;1.85;;;0.98;;
21804;SDS011;11064;47.102;15.452;2022-08-06T16:41:14;1.75;;;1.10;;
21804;SDS011;11064;47.102;15.452;2022-08-06T16:43:39;2.08;;;1.10;;
21804;SDS011;11064;47.102;15.452;2022-08-06T16:46:05;1.58;;;1.30;;
21804;SDS011;11064;47.102;15.452;2022-08-06T16:48:31;1.30;;;1.20;;
21804;SDS011;11064;47.102;15.452;2022-08-06T16:50:57;1.17;;;1.00;;
21804;SDS011;11064;47.102;15.452;2022-08-06T16:53:22;2.25;;;1.00;;
21804;SDS011;11064;47.102;15.452;2022-08-06T16:55:48;1.27;;;1.17;;
21804;SDS011;11064;47.102;15.452;2022-08-06T16:58:14;1.25;;;1.10;;
21804;SDS011;11064;47.102;15.452;2022-08-06T17:00:40;1.42;;;1.20;;
21804;SDS011;11064;47.102;15.452;2022-08-06T17:03:06;1.40;;;1.10;;
21804;SDS011;11064;47.102;15.452;2022-08-06T17:05:32;1.40;;;1.30;;
21804;SDS011;11064;47.102;15.452;2022-08-06T17:07:59;1.30;;;1.20;;
21804;SDS011;11064;47.102;15.452;2022-08-06T17:10:25;1.48;;;1.38;;
21804;SDS011;11064;47.102;15.452;2022-08-06T17:12:51;1.10;;;1.00;;
21804;SDS011;11064;47.102;15.452;2022-08-06T17:15:18;3.10;;;1.27;;
21804;SDS011;11064;47.102;15.452;2022-08-06T17:17:46;1.67;;;1.27;;
21804;SDS011;11064;47.102;15.452;2022-08-06T17:20:12;1.30;;;1.20;;
21804;SDS011;11064;47.102;15.452;2022-08-06T17:22:39;2.22;;;1.35;;
21804;SDS011;11064;47.102;15.452;2022-08-06T17:25:06;1.60;;;1.40;;
21804;SDS011;11064;47.102;15.452;2022-08-06T17:27:36;1.65;;;1.33;;
21804;SDS011;11064;47.102;15.452;2022-08-06T17:32:36;1.20;;;1.10;;
21804;SDS011;11064;47.102;15.452;2022-08-06T17:35:10;1.50;;;1.40;;
21804;SDS011;11064;47.102;15.452;2022-08-06T17:37:42;2.42;;;1.50;;
21804;SDS011;11064;47.102;15.452;2022-08-06T17:40:09;1.52;;;1.42;;
21804;SDS011;11064;47.102;15.452;2022-08-06T17:42:40;1.52;;;1.42;;
21804;SDS011;11064;47.102;15.452;2022-08-06T17:45:05;2.03;;;1.55;;
21804;SDS011;11064;47.102;15.452;2022-08-06T17:47:32;1.75;;;1.42;;
21804;SDS011;11064;47.102;15.452;2022-08-06T17:49:58;1.70;;;1.60;;
21804;SDS011;11064;47.102;15.452;2022-08-06T17:52:24;1.50;;;1.40;;
21804;SDS011;11064;47.102;15.452;2022-08-06T17:54:51;1.60;;;1.50;;
21804;SDS011;11064;47.102;15.452;2022-08-06T17:57:18;1.40;;;1.30;;
21804;SDS011;11064;47.102;15.452;2022-08-06T17:59:46;1.60;;;1.50;;
21804;SDS011;11064;47.102;15.452;2022-08-06T18:02:12;1.75;;;1.50;;
21804;SDS011;11064;47.102;15.452;2022-08-06T18:04:37;1.63;;;1.52;;
21804;SDS011;11064;47.102;15.452;2022-08-06T18:07:04;1.95;;;1.60;;
21804;SDS011;11064;47.102;15.452;2022-08-06T18:09:32;1.80;;;1.50;;
21804;SDS011;11064;47.102;15.452;2022-08-06T18:12:00;3.03;;;1.50;;
21804;SDS011;11064;47.102;15.452;2022-08-06T18:14:27;1.88;;;1.55;;
21804;SDS011;11064;47.102;15.452;2022-08-06T18:16:53;2.15;;;1.58;;
21804;SDS011;11064;47.102;15.452;2022-08-06T18:19:19;2.85;;;1.33;;
21804;SDS011;11064;47.102;15.452;2022-08-06T18:21:45;2.28;;;1.50;;
21804;SDS011;11064;47.102;15.452;2022-08-06T18:24:11;1.77;;;1.45;;
21804;SDS011;11064;47.102;15.452;2022-08-06T18:26:36;1.48;;;1.38;;
21804;SDS011;11064;47.102;15.452;2022-08-06T18:29:03;3.13;;;1.50;;
21804;SDS011;11064;47.102;15.452;2022-08-06T18:31:30;1.77;;;1.67;;
21804;SDS011;11064;47.102;15.452;2022-08-06T18:33:56;1.77;;;1.50;;
21804;SDS011;11064;47.102;15.452;2022-08-06T18:36:22;3.60;;;1.88;;
21804;SDS011;11064;47.102;15.452;2022-08-06T18:38:48;1.98;;;1.50;;
21804;SDS011;11064;47.102;15.452;2022-08-06T18:41:14;1.75;;;1.58;;
21804;SDS011;11064;47.102;15.452;2022-08-06T18:43:40;1.60;;;1.50;;
21804;SDS011;11064;47.102;15.452;2022-08-06T18:46:07;3.78;;;1.42;;
21804;SDS011;11064;47.102;15.452;2022-08-06T18:48:33;1.63;;;1.52;;
21804;SDS011;11064;47.102;15.452;2022-08-06T18:50:59;3.30;;;1.80;;
21804;SDS011;11064;47.102;15.452;2022-08-06T18:53:25;1.80;;;1.70;;
21804;SDS011;11064;47.102;15.452;2022-08-06T18:55:51;2.40;;;1.80;;
21804;SDS011;11064;47.102;15.452;2022-08-06T18:58:17;1.60;;;1.50;;
21804;SDS011;11064;47.102;15.452;2022-08-06T19:00:43;1.80;;;1.70;;
21804;SDS011;11064;47.102;15.452;2022-08-06T19:03:09;2.17;;;1.58;;
21804;SDS011;11064;47.102;15.452;2022-08-06T19:05:35;3.60;;;1.65;;
21804;SDS011;11064;47.102;15.452;2022-08-06T19:08:01;1.75;;;1.55;;
21804;SDS011;11064;47.102;15.452;2022-08-06T19:10:27;2.83;;;1.67;;
21804;SDS011;11064;47.102;15.452;2022-08-06T19:12:54;2.00;;;1.60;;
21804;SDS011;11064;47.102;15.452;2022-08-06T19:15:21;1.80;;;1.70;;
21804;SDS011;11064;47.102;15.452;2022-08-06T19:17:46;1.80;;;1.70;;
21804;SDS011;11064;47.102;15.452;2022-08-06T19:20:13;1.67;;;1.58;;
21804;SDS011;11064;47.102;15.452;2022-08-06T19:22:40;1.83;;;1.73;;
21804;SDS011;11064;47.102;15.452;2022-08-06T19:25:06;2.65;;;1.65;;
21804;SDS011;11064;47.102;15.452;2022-08-06T19:27:32;2.17;;;1.80;;
21804;SDS011;11064;47.102;15.452;2022-08-06T19:29:58;1.83;;;1.65;;
21804;SDS011;11064;47.102;15.452;2022-08-06T19:32:24;2.05;;;1.67;;
21804;SDS011;11064;47.102;15.452;2022-08-06T19:34:50;2.90;;;1.63;;
21804;SDS011;11064;47.102;15.452;2022-08-06T19:37:19;1.80;;;1.70;;
21804;SDS011;11064;47.102;15.452;2022-08-06T19:39:45;2.63;;;1.70;;
21804;SDS011;11064;47.102;15.452;2022-08-06T19:42:11;1.83;;;1.73;;
21804;SDS011;11064;47.102;15.452;2022-08-06T19:44:38;2.95;;;1.67;;
21804;SDS011;11064;47.102;15.452;2022-08-06T19:47:05;2.25;;;1.67;;
21804;SDS011;11064;47.102;15.452;2022-08-06T19:49:32;2.95;;;1.67;;
21804;SDS011;11064;47.102;15.452;2022-08-06T19:51:57;1.80;;;1.70;;
21804;SDS011;11064;47.102;15.452;2022-08-06T19:54:23;1.75;;;1.60;;
21804;SDS011;11064;47.102;15.452;2022-08-06T19:56:49;3.13;;;2.00;;
21804;SDS011;11064;47.102;15.452;2022-08-06T19:59:15;1.80;;;1.70;;
21804;SDS011;11064;47.102;15.452;2022-08-06T20:01:41;4.20;;;1.77;;
21804;SDS011;11064;47.102;15.452;2022-08-06T20:04:07;2.28;;;1.90;;
21804;SDS011;11064;47.102;15.452;2022-08-06T20:06:34;2.10;;;1.90;;
21804;SDS011;11064;47.102;15.452;2022-08-06T20:08:59;2.10;;;1.88;;
21804;SDS011;11064;47.102;15.452;2022-08-06T20:11:25;2.00;;;1.80;;
21804;SDS011;11064;47.102;15.452;2022-08-06T20:13:52;2.00;;;1.80;;
21804;SDS011;11064;47.102;15.452;2022-08-06T20:16:18;2.85;;;1.80;;
21804;SDS011;11064;47.102;15.452;2022-08-06T20:18:44;2.50;;;1.70;;
21804;SDS011;11064;47.102;15.452;2022-08-06T20:21:10;2.28;;;1.85;;
21804;SDS011;11064;47.102;15.452;2022-08-06T20:23:36;3.25;;;1.77;;
21804;SDS011;11064;47.102;15.452;2022-08-06T20:26:04;1.98;;;1.80;;
21804;SDS011;11064;47.102;15.452;2022-08-06T20:28:31;1.80;;;1.70;;
21804;SDS011;11064;47.102;15.452;2022-08-06T20:30:57;2.00;;;1.80;;
21804;SDS011;11064;47.102;15.452;2022-08-06T20:33:23;2.40;;;1.70;;
21804;SDS011;11064;47.102;15.452;2022-08-06T20:35:51;1.90;;;1.70;;
21804;SDS011;11064;47.102;15.452;2022-08-06T20:38:18;2.00;;;1.80;;
21804;SDS011;11064;47.102;15.452;2022-08-06T20:40:44;1.90;;;1.80;;
21804;SDS011;11064;47.102;15.452;2022-08-06T20:43:10;1.88;;;1.75;;
21804;SDS011;11064;47.102;15.452;2022-08-06T20:45:39;1.60;;;1.50;;
21804;SDS011;11064;47.102;15.452;2022-08-06T20:48:05;3.10;;;1.95;;
21804;SDS011;11064;47.102;15.452;2022-08-06T20:50:34;2.00;;;1.50;;
21804;SDS011;11064;47.102;15.452;2022-08-06T20:53:00;1.50;;;1.40;;
21804;SDS011;11064;47.102;15.452;2022-08-06T20:55:27;1.40;;;1.30;;
21804;SDS011;11064;47.102;15.452;2022-08-06T20:57:53;1.77;;;1.38;;
21804;SDS011;11064;47.102;15.452;2022-08-06T21:00:20;1.73;;;1.40;;
21804;SDS011;11064;47.102;15.452;2022-08-06T21:02:50;2.20;;;2.00;;
21804;SDS011;11064;47.102;15.452;2022-08-06T21:05:17;2.53;;;1.88;;
21804;SDS011;11064;47.102;15.452;2022-08-06T21:07:44;2.67;;;2.20;;